sensor_id;sensor_type;location;lat;lon;timestamp;P1;durP1;ratioP1;P2;durP2;ratioP2
7049;SDS011;22263;52.260;10.548;2023-07-02T00:01:34;0.20;;;0.20;;
7049;SDS011;22263;52.260;10.548;2023-07-02T00:04:07;0.20;;;0.20;;
7049;SDS011;22263;52.260;10.548;2023-07-02T00:06:40;0.30;;;0.30;;
7049;SDS011;22263;52.260;10.548;2023-07-02T00:09:09;0.20;;;0.20;;
7049;SDS011;22263;52.260;10.548;2023-07-02T00:11:40;0.22;;;0.22;;
7049;SDS011;22263;52.260;10.548;2023-07-02T00:14:11;0.20;;;0.20;;
7049;SDS011;22263;52.260;10.548;2023-07-02T00:16:42;0.30;;;0.30;;
7049;SDS011;22263;52.260;10.548;2023-07-02T00:19:17;0.25;;;0.25;;
7049;SDS011;22263;52.260;10.548;2023-07-02T00:21:47;0.25;;;0.25;;
7049;SDS011;22263;52.260;10.548;2023-07-02T00:24:16;0.30;;;0.30;;
7049;SDS011;22263;52.260;10.548;2023-07-02T00:26:46;0.20;;;0.20;;
7049;SDS011;22263;52.260;10.548;2023-07-02T00:29:16;0.20;;;0.20;;
7049;SDS011;22263;52.260;10.548;2023-07-02T00:31:46;0.22;;;0.22;;
7049;SDS011;22263;52.260;10.548;2023-07-02T00:34:18;0.20;;;0.20;;
7049;SDS011;22263;52.260;10.548;2023-07-02T00:36:48;0.30;;;0.30;;
7049;SDS011;22263;52.260;10.548;2023-07-02T00:39:18;0.30;;;0.30;;
7049;SDS011;22263;52.260;10.548;2023-07-02T00:41:48;0.30;;;0.30;;
7049;SDS011;22263;52.260;10.548;2023-07-02T00:44:17;0.30;;;0.30;;
7049;SDS011;22263;52.260;10.548;2023-07-02T00:46:50;0.30;;;0.30;;
7049;SDS011;22263;52.260;10.548;2023-07-02T00:49:22;0.20;;;0.20;;
7049;SDS011;22263;52.260;10.548;2023-07-02T00:51:52;0.30;;;0.30;;
7049;SDS011;22263;52.260;10.548;2023-07-02T00:54:24;0.20;;;0.20;;
7049;SDS011;22263;52.260;10.548;2023-07-02T00:56:57;0.25;;;0.25;;
7049;SDS011;22263;52.260;10.548;2023-07-02T00:59:30;0.22;;;0.22;;
7049;SDS011;22263;52.260;10.548;2023-07-02T01:02:04;0.30;;;0.30;;
7049;SDS011;22263;52.260;10.548;2023-07-02T01:04:37;0.20;;;0.20;;
7049;SDS011;22263;52.260;10.548;2023-07-02T01:07:07;0.30;;;0.30;;
7049;SDS011;22263;52.260;10.548;2023-07-02T01:09:38;0.30;;;0.30;;
7049;SDS011;22263;52.260;10.548;2023-07-02T01:12:07;0.20;;;0.20;;
7049;SDS011;22263;52.260;10.548;2023-07-02T01:14:40;0.30;;;0.30;;
7049;SDS011;22263;52.260;10.548;2023-07-02T01:17:13;0.20;;;0.20;;
7049;SDS011;22263;52.260;10.548;2023-07-02T01:19:49;0.22;;;0.22;;
7049;SDS011;22263;52.260;10.548;2023-07-02T01:22:20;0.20;;;0.20;;
7049;SDS011;22263;52.260;10.548;2023-07-02T01:24:52;0.30;;;0.30;;
7049;SDS011;22263;52.260;10.548;2023-07-02T01:27:22;0.30;;;0.30;;
7049;SDS011;22263;52.260;10.548;2023-07-02T01:29:52;0.30;;;0.30;;
7049;SDS011;22263;52.260;10.548;2023-07-02T01:32:22;0.30;;;0.30;;
7049;SDS011;22263;52.260;10.548;2023-07-02T01:34:55;0.30;;;0.30;;
7049;SDS011;22263;52.260;10.548;2023-07-02T01:37:25;0.30;;;0.30;;
7049;SDS011;22263;52.260;10.548;2023-07-02T01:39:55;0.30;;;0.30;;
7049;SDS011;22263;52.260;10.548;2023-07-02T01:42:25;0.30;;;0.30;;
7049;SDS011;22263;52.260;10.548;2023-07-02T01:44:54;0.22;;;0.22;;
7049;SDS011;22263;52.260;10.548;2023-07-02T01:47:25;0.30;;;0.30;;
7049;SDS011;22263;52.260;10.548;2023-07-02T01:49:58;0.20;;;0.20;;
7049;SDS011;22263;52.260;10.548;2023-07-02T01:52:27;0.28;;;0.28;;
7049;SDS011;22263;52.260;10.548;2023-07-02T01:55:00;0.28;;;0.28;;
7049;SDS011;22263;52.260;10.548;2023-07-02T01:57:31;0.20;;;0.20;;
7049;SDS011;22263;52.260;10.548;2023-07-02T02:00:01;0.25;;;0.25;;
7049;SDS011;22263;52.260;10.548;2023-07-02T02:02:40;0.30;;;0.30;;
7049;SDS011;22263;52.260;10.548;2023-07-02T02:05:13;0.30;;;0.30;;
7049;SDS011;22263;52.260;10.548;2023-07-02T02:07:43;0.30;;;0.30;;
7049;SDS011;22263;52.260;10.548;2023-07-02T02:10:12;0.30;;;0.30;;
7049;SDS011;22263;52.260;10.548;2023-07-02T02:12:43;0.20;;;0.20;;
7049;SDS011;22263;52.260;10.548;2023-07-02T02:15:13;0.20;;;0.20;;
7049;SDS011;22263;52.260;10.548;2023-07-02T02:17:43;0.20;;;0.20;;
7049;SDS011;22263;52.260;10.548;2023-07-02T02:20:16;0.30;;;0.30;;
7049;SDS011;22263;52.260;10.548;2023-07-02T02:22:46;0.30;;;0.30;;
7049;SDS011;22263;52.260;10.548;2023-07-02T02:25:15;0.30;;;0.30;;
7049;SDS011;22263;52.260;10.548;2023-07-02T02:27:45;0.30;;;0.30;;
7049;SDS011;22263;52.260;10.548;2023-07-02T02:30:15;0.20;;;0.20;;
7049;SDS011;22263;52.260;10.548;2023-07-02T02:32:45;0.30;;;0.30;;
7049;SDS011;22263;52.260;10.548;2023-07-02T02:35:19;0.20;;;0.20;;
7049;SDS011;22263;52.260;10.548;2023-07-02T02:37:52;0.30;;;0.30;;
7049;SDS011;22263;52.260;10.548;2023-07-02T02:40:22;0.20;;;0.20;;
7049;SDS011;22263;52.260;10.548;2023-07-02T02:42:52;0.30;;;0.30;;
7049;SDS011;22263;52.260;10.548;2023-07-02T02:45:22;0.30;;;0.30;;
7049;SDS011;22263;52.260;10.548;2023-07-02T02:47:52;0.30;;;0.30;;
7049;SDS011;22263;52.260;10.548;2023-07-02T02:50:24;0.30;;;0.30;;
7049;SDS011;22263;52.260;10.548;2023-07-02T02:52:54;0.30;;;0.30;;
7049;SDS011;22263;52.260;10.548;2023-07-02T02:55:27;0.30;;;0.30;;
7049;SDS011;22263;52.260;10.548;2023-07-02T02:57:57;0.20;;;0.20;;
7049;SDS011;22263;52.260;10.548;2023-07-02T03:00:26;0.30;;;0.30;;
7049;SDS011;22263;52.260;10.548;2023-07-02T03:02:56;0.28;;;0.28;;
7049;SDS011;22263;52.260;10.548;2023-07-02T03:05:30;0.20;;;0.20;;
7049;SDS011;22263;52.260;10.548;2023-07-02T03:07:59;0.30;;;0.30;;
7049;SDS011;22263;52.260;10.548;2023-07-02T03:10:29;0.30;;;0.30;;
7049;SDS011;22263;52.260;10.548;2023-07-02T03:12:59;0.30;;;0.30;;
7049;SDS011;22263;52.260;10.548;2023-07-02T03:15:29;0.20;;;0.20;;
7049;SDS011;22263;52.260;10.548;2023-07-02T03:18:00;0.25;;;0.25;;
7049;SDS011;22263;52.260;10.548;2023-07-02T03:20:32;0.20;;;0.20;;
7049;SDS011;22263;52.260;10.548;2023-07-02T03:23:02;0.25;;;0.25;;
7049;SDS011;22263;52.260;10.548;2023-07-02T03:25:32;0.30;;;0.30;;
7049;SDS011;22263;52.260;10.548;2023-07-02T03:28:02;0.30;;;0.30;;
7049;SDS011;22263;52.260;10.548;2023-07-02T03:30:32;0.30;;;0.30;;
7049;SDS011;22263;52.260;10.548;2023-07-02T03:33:02;0.30;;;0.30;;
7049;SDS011;22263;52.260;10.548;2023-07-02T03:35:34;0.30;;;0.30;;
7049;SDS011;22263;52.260;10.548;2023-07-02T03:38:04;0.20;;;0.20;;
7049;SDS011;22263;52.260;10.548;2023-07-02T03:40:34;0.30;;;0.30;;
7049;SDS011;22263;52.260;10.548;2023-07-02T03:43:05;0.25;;;0.25;;
7049;SDS011;22263;52.260;10.548;2023-07-02T03:45:35;0.20;;;0.20;;
7049;SDS011;22263;52.260;10.548;2023-07-02T03:48:05;0.20;;;0.20;;
7049;SDS011;22263;52.260;10.548;2023-07-02T03:50:37;0.30;;;0.30;;
7049;SDS011;22263;52.260;10.548;2023-07-02T03:53:07;0.20;;;0.20;;
7049;SDS011;22263;52.260;10.548;2023-07-02T03:55:37;0.30;;;0.30;;
7049;SDS011;22263;52.260;10.548;2023-07-02T03:58:07;0.30;;;0.30;;
7049;SDS011;22263;52.260;10.548;2023-07-02T04:00:37;0.30;;;0.30;;
7049;SDS011;22263;52.260;10.548;2023-07-02T04:03:08;0.20;;;0.20;;
7049;SDS011;22263;52.260;10.548;2023-07-02T04:05:40;0.30;;;0.30;;
7049;SDS011;22263;52.260;10.548;2023-07-02T04:08:10;0.30;;;0.30;;
7049;SDS011;22263;52.260;10.548;2023-07-02T04:10:40;0.25;;;0.25;;
7049;SDS011;22263;52.260;10.548;2023-07-02T04:13:10;0.30;;;0.30;;
7049;SDS011;22263;52.260;10.548;2023-07-02T04:15:40;0.30;;;0.30;;
7049;SDS011;22263;52.260;10.548;2023-07-02T04:18:10;0.30;;;0.30;;
7049;SDS011;22263;52.260;10.548;2023-07-02T04:20:42;0.30;;;0.30;;
7049;SDS011;22263;52.260;10.548;2023-07-02T04:23:12;0.28;;;0.28;;
7049;SDS011;22263;52.260;10.548;2023-07-02T04:25:43;0.20;;;0.20;;
7049;SDS011;22263;52.260;10.548;2023-07-02T04:28:33;0.30;;;0.30;;
7049;SDS011;22263;52.260;10.548;2023-07-02T04:31:03;0.20;;;0.20;;
7049;SDS011;22263;52.260;10.548;2023-07-02T04:33:33;0.30;;;0.30;;
7049;SDS011;22263;52.260;10.548;2023-07-02T04:36:05;0.30;;;0.30;;
7049;SDS011;22263;52.260;10.548;2023-07-02T04:38:35;0.20;;;0.20;;
7049;SDS011;22263;52.260;10.548;2023-07-02T04:41:05;0.30;;;0.30;;
7049;SDS011;22263;52.260;10.548;2023-07-02T04:43:36;0.22;;;0.22;;
7049;SDS011;22263;52.260;10.548;2023-07-02T04:46:06;0.20;;;0.20;;
7049;SDS011;22263;52.260;10.548;2023-07-02T04:48:39;0.20;;;0.20;;
7049;SDS011;22263;52.260;10.548;2023-07-02T04:51:12;0.30;;;0.30;;
7049;SDS011;22263;52.260;10.548;2023-07-02T04:53:42;0.22;;;0.22;;
7049;SDS011;22263;52.260;10.548;2023-07-02T04:56:12;0.30;;;0.30;;
7049;SDS011;22263;52.260;10.548;2023-07-02T04:58:42;0.28;;;0.28;;
7049;SDS011;22263;52.260;10.548;2023-07-02T05:01:12;0.30;;;0.30;;
7049;SDS011;22263;52.260;10.548;2023-07-02T05:03:41;0.30;;;0.30;;
7049;SDS011;22263;52.260;10.548;2023-07-02T05:06:14;0.30;;;0.30;;
7049;SDS011;22263;52.260;10.548;2023-07-02T05:08:44;0.20;;;0.20;;
7049;SDS011;22263;52.260;10.548;2023-07-02T05:11:14;0.20;;;0.20;;
7049;SDS011;22263;52.260;10.548;2023-07-02T05:13:43;0.20;;;0.20;;
7049;SDS011;22263;52.260;10.548;2023-07-02T05:16:13;0.30;;;0.30;;
7049;SDS011;22263;52.260;10.548;2023-07-02T05:18:43;0.22;;;0.22;;
7049;SDS011;22263;52.260;10.548;2023-07-02T05:21:17;0.20;;;0.20;;
7049;SDS011;22263;52.260;10.548;2023-07-02T05:23:47;0.20;;;0.20;;
7049;SDS011;22263;52.260;10.548;2023-07-02T05:26:17;0.20;;;0.20;;
7049;SDS011;22263;52.260;10.548;2023-07-02T05:28:46;0.20;;;0.20;;
7049;SDS011;22263;52.260;10.548;2023-07-02T05:31:16;0.30;;;0.30;;
7049;SDS011;22263;52.260;10.548;2023-07-02T05:33:46;0.30;;;0.30;;
7049;SDS011;22263;52.260;10.548;2023-07-02T05:36:18;0.20;;;0.20;;
7049;SDS011;22263;52.260;10.548;2023-07-02T05:38:48;0.28;;;0.28;;
7049;SDS011;22263;52.260;10.548;2023-07-02T05:41:18;0.30;;;0.30;;
7049;SDS011;22263;52.260;10.548;2023-07-02T05:43:48;0.28;;;0.28;;
7049;SDS011;22263;52.260;10.548;2023-07-02T05:46:18;0.30;;;0.30;;
7049;SDS011;22263;52.260;10.548;2023-07-02T05:48:48;0.30;;;0.30;;
7049;SDS011;22263;52.260;10.548;2023-07-02T05:51:22;0.30;;;0.30;;
7049;SDS011;22263;52.260;10.548;2023-07-02T05:53:53;0.20;;;0.20;;
7049;SDS011;22263;52.260;10.548;2023-07-02T05:56:22;0.30;;;0.30;;
7049;SDS011;22263;52.260;10.548;2023-07-02T05:58:52;0.30;;;0.30;;
7049;SDS011;22263;52.260;10.548;2023-07-02T06:01:22;0.30;;;0.30;;
7049;SDS011;22263;52.260;10.548;2023-07-02T06:03:52;0.35;;;0.35;;
7049;SDS011;22263;52.260;10.548;2023-07-02T06:06:24;0.30;;;0.30;;
7049;SDS011;22263;52.260;10.548;2023-07-02T06:08:54;0.30;;;0.30;;
7049;SDS011;22263;52.260;10.548;2023-07-02T06:11:24;0.30;;;0.30;;
7049;SDS011;22263;52.260;10.548;2023-07-02T06:13:53;0.30;;;0.30;;
7049;SDS011;22263;52.260;10.548;2023-07-02T06:16:23;0.30;;;0.30;;
7049;SDS011;22263;52.260;10.548;2023-07-02T06:18:53;0.30;;;0.30;;
7049;SDS011;22263;52.260;10.548;2023-07-02T06:21:26;0.30;;;0.30;;
7049;SDS011;22263;52.260;10.548;2023-07-02T06:23:57;0.30;;;0.30;;
7049;SDS011;22263;52.260;10.548;2023-07-02T06:26:28;0.30;;;0.30;;
7049;SDS011;22263;52.260;10.548;2023-07-02T06:28:58;0.20;;;0.20;;
7049;SDS011;22263;52.260;10.548;2023-07-02T06:31:28;0.30;;;0.30;;
7049;SDS011;22263;52.260;10.548;2023-07-02T06:33:59;0.30;;;0.30;;
7049;SDS011;22263;52.260;10.548;2023-07-02T06:36:31;0.30;;;0.30;;
7049;SDS011;22263;52.260;10.548;2023-07-02T06:39:01;0.30;;;0.30;;
7049;SDS011;22263;52.260;10.548;2023-07-02T06:41:30;0.30;;;0.30;;
7049;SDS011;22263;52.260;10.548;2023-07-02T06:44:00;0.20;;;0.20;;
7049;SDS011;22263;52.260;10.548;2023-07-02T06:46:30;0.30;;;0.30;;
7049;SDS011;22263;52.260;10.548;2023-07-02T06:49:00;0.20;;;0.20;;
7049;SDS011;22263;52.260;10.548;2023-07-02T06:51:32;0.20;;;0.20;;
7049;SDS011;22263;52.260;10.548;2023-07-02T06:54:02;0.30;;;0.30;;
7049;SDS011;22263;52.260;10.548;2023-07-02T06:56:31;0.30;;;0.30;;
7049;SDS011;22263;52.260;10.548;2023-07-02T06:59:01;0.20;;;0.20;;
7049;SDS011;22263;52.260;10.548;2023-07-02T07:01:31;0.30;;;0.30;;
7049;SDS011;22263;52.260;10.548;2023-07-02T07:04:03;0.20;;;0.20;;
7049;SDS011;22263;52.260;10.548;2023-07-02T07:06:35;0.20;;;0.20;;
7049;SDS011;22263;52.260;10.548;2023-07-02T07:09:05;0.20;;;0.20;;
7049;SDS011;22263;52.260;10.548;2023-07-02T07:11:35;0.20;;;0.20;;
7049;SDS011;22263;52.260;10.548;2023-07-02T07:14:05;0.20;;;0.20;;
7049;SDS011;22263;52.260;10.548;2023-07-02T07:16:34;0.20;;;0.20;;
7049;SDS011;22263;52.260;10.548;2023-07-02T07:19:04;0.20;;;0.20;;
7049;SDS011;22263;52.260;10.548;2023-07-02T07:21:37;0.20;;;0.20;;
7049;SDS011;22263;52.260;10.548;2023-07-02T07:24:07;0.20;;;0.20;;
7049;SDS011;22263;52.260;10.548;2023-07-02T07:26:37;0.20;;;0.20;;
7049;SDS011;22263;52.260;10.548;2023-07-02T07:29:06;0.28;;;0.28;;
7049;SDS011;22263;52.260;10.548;2023-07-02T07:31:36;0.20;;;0.20;;
7049;SDS011;22263;52.260;10.548;2023-07-02T07:34:06;0.20;;;0.20;;
7049;SDS011;22263;52.260;10.548;2023-07-02T07:36:39;0.20;;;0.20;;
7049;SDS011;22263;52.260;10.548;2023-07-02T07:39:08;0.20;;;0.20;;
7049;SDS011;22263;52.260;10.548;2023-07-02T07:41:38;0.20;;;0.20;;
7049;SDS011;22263;52.260;10.548;2023-07-02T07:44:09;0.20;;;0.20;;
7049;SDS011;22263;52.260;10.548;2023-07-02T07:46:39;0.10;;;0.10;;
7049;SDS011;22263;52.260;10.548;2023-07-02T07:49:09;0.20;;;0.20;;
7049;SDS011;22263;52.260;10.548;2023-07-02T07:51:41;0.20;;;0.20;;
7049;SDS011;22263;52.260;10.548;2023-07-02T07:54:11;0.10;;;0.10;;
7049;SDS011;22263;52.260;10.548;2023-07-02T07:56:41;0.20;;;0.20;;
7049;SDS011;22263;52.260;10.548;2023-07-02T07:59:11;0.20;;;0.20;;
7049;SDS011;22263;52.260;10.548;2023-07-02T08:01:41;0.20;;;0.20;;
7049;SDS011;22263;52.260;10.548;2023-07-02T08:04:13;0.20;;;0.20;;
7049;SDS011;22263;52.260;10.548;2023-07-02T08:06:45;0.20;;;0.20;;
7049;SDS011;22263;52.260;10.548;2023-07-02T08:09:15;0.20;;;0.20;;
7049;SDS011;22263;52.260;10.548;2023-07-02T08:11:45;0.10;;;0.10;;
7049;SDS011;22263;52.260;10.548;2023-07-02T08:14:15;0.10;;;0.10;;
7049;SDS011;22263;52.260;10.548;2023-07-02T08:16:46;0.20;;;0.20;;
7049;SDS011;22263;52.260;10.548;2023-07-02T08:19:16;0.20;;;0.20;;
7049;SDS011;22263;52.260;10.548;2023-07-02T08:21:49;0.20;;;0.20;;
7049;SDS011;22263;52.260;10.548;2023-07-02T08:24:19;0.20;;;0.20;;
7049;SDS011;22263;52.260;10.548;2023-07-02T08:26:49;0.20;;;0.20;;
7049;SDS011;22263;52.260;10.548;2023-07-02T08:29:18;0.10;;;0.10;;
7049;SDS011;22263;52.260;10.548;2023-07-02T08:31:48;0.10;;;0.10;;
7049;SDS011;22263;52.260;10.548;2023-07-02T08:34:18;0.20;;;0.20;;
7049;SDS011;22263;52.260;10.548;2023-07-02T08:36:50;0.20;;;0.20;;
7049;SDS011;22263;52.260;10.548;2023-07-02T08:39:20;0.20;;;0.20;;
7049;SDS011;22263;52.260;10.548;2023-07-02T08:41:50;0.20;;;0.20;;
7049;SDS011;22263;52.260;10.548;2023-07-02T08:44:20;0.10;;;0.10;;
7049;SDS011;22263;52.260;10.548;2023-07-02T08:46:50;0.10;;;0.10;;
7049;SDS011;22263;52.260;10.548;2023-07-02T08:49:23;0.20;;;0.20;;
7049;SDS011;22263;52.260;10.548;2023-07-02T08:51:55;0.10;;;0.10;;
7049;SDS011;22263;52.260;10.548;2023-07-02T08:54:25;0.20;;;0.20;;
7049;SDS011;22263;52.260;10.548;2023-07-02T08:56:55;0.20;;;0.20;;
7049;SDS011;22263;52.260;10.548;2023-07-02T08:59:27;0.20;;;0.20;;
7049;SDS011;22263;52.260;10.548;2023-07-02T09:01:57;0.10;;;0.10;;
7049;SDS011;22263;52.260;10.548;2023-07-02T09:04:27;0.20;;;0.20;;
7049;SDS011;22263;52.260;10.548;2023-07-02T09:07:06;0.10;;;0.10;;
7049;SDS011;22263;52.260;10.548;2023-07-02T09:09:44;0.10;;;0.10;;
7049;SDS011;22263;52.260;10.548;2023-07-02T09:12:22;0.10;;;0.10;;
7049;SDS011;22263;52.260;10.548;2023-07-02T09:14:54;0.10;;;0.10;;
7049;SDS011;22263;52.260;10.548;2023-07-02T09:17:28;0.20;;;0.20;;
7049;SDS011;22263;52.260;10.548;2023-07-02T09:19:59;0.20;;;0.20;;
7049;SDS011;22263;52.260;10.548;2023-07-02T09:22:34;0.10;;;0.10;;
7049;SDS011;22263;52.260;10.548;2023-07-02T09:25:05;0.10;;;0.10;;
7049;SDS011;22263;52.260;10.548;2023-07-02T09:27:38;0.10;;;0.10;;
7049;SDS011;22263;52.260;10.548;2023-07-02T09:30:10;0.20;;;0.20;;
7049;SDS011;22263;52.260;10.548;2023-07-02T09:32:42;0.20;;;0.20;;
7049;SDS011;22263;52.260;10.548;2023-07-02T09:35:13;0.20;;;0.20;;
7049;SDS011;22263;52.260;10.548;2023-07-02T09:37:46;0.10;;;0.10;;
7049;SDS011;22263;52.260;10.548;2023-07-02T09:40:16;0.10;;;0.10;;
7049;SDS011;22263;52.260;10.548;2023-07-02T09:42:47;0.10;;;0.10;;
7049;SDS011;22263;52.260;10.548;2023-07-02T09:45:19;0.10;;;0.10;;
7049;SDS011;22263;52.260;10.548;2023-07-02T09:47:51;0.10;;;0.10;;
7049;SDS011;22263;52.260;10.548;2023-07-02T09:50:26;0.20;;;0.20;;
7049;SDS011;22263;52.260;10.548;2023-07-02T09:53:01;0.10;;;0.10;;
7049;SDS011;22263;52.260;10.548;2023-07-02T09:55:31;0.10;;;0.10;;
7049;SDS011;22263;52.260;10.548;2023-07-02T09:58:02;0.10;;;0.10;;
7049;SDS011;22263;52.260;10.548;2023-07-02T10:00:31;0.10;;;0.10;;
7049;SDS011;22263;52.260;10.548;2023-07-02T10:03:01;0.20;;;0.20;;
7049;SDS011;22263;52.260;10.548;2023-07-02T10:05:32;0.10;;;0.10;;
7049;SDS011;22263;52.260;10.548;2023-07-02T10:08:15;0.10;;;0.10;;
7049;SDS011;22263;52.260;10.548;2023-07-02T10:10:49;0.10;;;0.10;;
7049;SDS011;22263;52.260;10.548;2023-07-02T10:13:26;0.00;;;0.00;;
7049;SDS011;22263;52.260;10.548;2023-07-02T10:16:00;0.10;;;0.10;;
7049;SDS011;22263;52.260;10.548;2023-07-02T10:18:30;0.00;;;0.00;;
7049;SDS011;22263;52.260;10.548;2023-07-02T10:21:12;0.10;;;0.10;;
7049;SDS011;22263;52.260;10.548;2023-07-02T10:23:46;0.10;;;0.10;;
7049;SDS011;22263;52.260;10.548;2023-07-02T10:26:16;0.05;;;0.05;;
7049;SDS011;22263;52.260;10.548;2023-07-02T10:28:56;0.10;;;0.10;;
7049;SDS011;22263;52.260;10.548;2023-07-02T10:31:29;0.00;;;0.00;;
7049;SDS011;22263;52.260;10.548;2023-07-02T10:33:58;0.10;;;0.10;;
7049;SDS011;22263;52.260;10.548;2023-07-02T10:36:28;0.03;;;0.03;;
7049;SDS011;22263;52.260;10.548;2023-07-02T10:39:03;0.10;;;0.10;;
7049;SDS011;22263;52.260;10.548;2023-07-02T10:41:35;0.05;;;0.05;;
7049;SDS011;22263;52.260;10.548;2023-07-02T10:44:05;0.10;;;0.10;;
7049;SDS011;22263;52.260;10.548;2023-07-02T10:46:42;0.10;;;0.10;;
7049;SDS011;22263;52.260;10.548;2023-07-02T10:49:13;0.00;;;0.00;;
7049;SDS011;22263;52.260;10.548;2023-07-02T10:51:43;0.10;;;0.10;;
7049;SDS011;22263;52.260;10.548;2023-07-02T10:54:15;0.08;;;0.08;;
7049;SDS011;22263;52.260;10.548;2023-07-02T10:56:45;0.00;;;0.00;;
7049;SDS011;22263;52.260;10.548;2023-07-02T10:59:22;0.00;;;0.00;;
7049;SDS011;22263;52.260;10.548;2023-07-02T11:01:53;0.10;;;0.10;;
7049;SDS011;22263;52.260;10.548;2023-07-02T11:04:22;0.05;;;0.05;;
7049;SDS011;22263;52.260;10.548;2023-07-02T11:06:52;0.10;;;0.10;;
7049;SDS011;22263;52.260;10.548;2023-07-02T11:09:25;0.00;;;0.00;;
7049;SDS011;22263;52.260;10.548;2023-07-02T11:11:56;0.10;;;0.10;;
7049;SDS011;22263;52.260;10.548;2023-07-02T11:14:27;0.10;;;0.10;;
7049;SDS011;22263;52.260;10.548;2023-07-02T11:17:02;0.10;;;0.10;;
7049;SDS011;22263;52.260;10.548;2023-07-02T11:19:33;0.10;;;0.10;;
7049;SDS011;22263;52.260;10.548;2023-07-02T11:22:03;0.10;;;0.10;;
7049;SDS011;22263;52.260;10.548;2023-07-02T11:24:36;0.10;;;0.10;;
7049;SDS011;22263;52.260;10.548;2023-07-02T11:27:06;0.10;;;0.10;;
7049;SDS011;22263;52.260;10.548;2023-07-02T11:29:36;0.00;;;0.00;;
7049;SDS011;22263;52.260;10.548;2023-07-02T11:32:06;0.10;;;0.10;;
7049;SDS011;22263;52.260;10.548;2023-07-02T11:34:37;0.00;;;0.00;;
7049;SDS011;22263;52.260;10.548;2023-07-02T11:37:07;0.10;;;0.10;;
7049;SDS011;22263;52.260;10.548;2023-07-02T11:39:40;0.10;;;0.10;;
7049;SDS011;22263;52.260;10.548;2023-07-02T11:42:12;0.10;;;0.08;;
7049;SDS011;22263;52.260;10.548;2023-07-02T11:44:42;0.00;;;0.00;;
7049;SDS011;22263;52.260;10.548;2023-07-02T11:47:12;0.03;;;0.03;;
7049;SDS011;22263;52.260;10.548;2023-07-02T11:49:42;0.00;;;0.00;;
7049;SDS011;22263;52.260;10.548;2023-07-02T11:52:12;0.10;;;0.10;;
7049;SDS011;22263;52.260;10.548;2023-07-02T11:54:44;0.00;;;0.00;;
7049;SDS011;22263;52.260;10.548;2023-07-02T11:57:14;0.10;;;0.10;;
7049;SDS011;22263;52.260;10.548;2023-07-02T11:59:44;0.10;;;0.10;;
7049;SDS011;22263;52.260;10.548;2023-07-02T12:02:13;0.10;;;0.10;;
7049;SDS011;22263;52.260;10.548;2023-07-02T12:04:43;0.10;;;0.10;;
7049;SDS011;22263;52.260;10.548;2023-07-02T12:07:13;0.10;;;0.10;;
7049;SDS011;22263;52.260;10.548;2023-07-02T12:09:46;0.10;;;0.10;;
7049;SDS011;22263;52.260;10.548;2023-07-02T12:12:16;0.10;;;0.10;;
7049;SDS011;22263;52.260;10.548;2023-07-02T12:14:46;0.10;;;0.10;;
7049;SDS011;22263;52.260;10.548;2023-07-02T12:17:18;0.10;;;0.10;;
7049;SDS011;22263;52.260;10.548;2023-07-02T12:19:48;0.10;;;0.10;;
7049;SDS011;22263;52.260;10.548;2023-07-02T12:22:18;0.10;;;0.10;;
7049;SDS011;22263;52.260;10.548;2023-07-02T12:24:52;0.10;;;0.10;;
7049;SDS011;22263;52.260;10.548;2023-07-02T12:27:24;0.10;;;0.10;;
7049;SDS011;22263;52.260;10.548;2023-07-02T12:29:55;0.10;;;0.10;;
7049;SDS011;22263;52.260;10.548;2023-07-02T12:32:25;0.10;;;0.10;;
7049;SDS011;22263;52.260;10.548;2023-07-02T12:34:56;0.05;;;0.05;;
7049;SDS011;22263;52.260;10.548;2023-07-02T12:37:26;0.10;;;0.10;;
7049;SDS011;22263;52.260;10.548;2023-07-02T12:39:59;0.10;;;0.10;;
7049;SDS011;22263;52.260;10.548;2023-07-02T12:42:29;0.10;;;0.10;;
7049;SDS011;22263;52.260;10.548;2023-07-02T12:44:59;0.00;;;0.00;;
7049;SDS011;22263;52.260;10.548;2023-07-02T12:47:29;0.10;;;0.10;;
7049;SDS011;22263;52.260;10.548;2023-07-02T12:49:58;0.10;;;0.10;;
7049;SDS011;22263;52.260;10.548;2023-07-02T12:52:28;0.10;;;0.10;;
7049;SDS011;22263;52.260;10.548;2023-07-02T12:55:01;0.10;;;0.10;;
7049;SDS011;22263;52.260;10.548;2023-07-02T12:57:31;0.10;;;0.10;;
7049;SDS011;22263;52.260;10.548;2023-07-02T13:00:01;0.10;;;0.10;;
7049;SDS011;22263;52.260;10.548;2023-07-02T13:02:32;0.10;;;0.10;;
7049;SDS011;22263;52.260;10.548;2023-07-02T13:05:19;0.10;;;0.10;;
7049;SDS011;22263;52.260;10.548;2023-07-02T13:07:49;0.10;;;0.10;;
7049;SDS011;22263;52.260;10.548;2023-07-02T13:10:21;0.05;;;0.05;;
7049;SDS011;22263;52.260;10.548;2023-07-02T13:12:51;0.10;;;0.10;;
7049;SDS011;22263;52.260;10.548;2023-07-02T13:15:28;0.00;;;0.00;;
7049;SDS011;22263;52.260;10.548;2023-07-02T13:17:58;0.10;;;0.10;;
7049;SDS011;22263;52.260;10.548;2023-07-02T13:20:28;0.10;;;0.10;;
7049;SDS011;22263;52.260;10.548;2023-07-02T13:22:58;0.10;;;0.10;;
7049;SDS011;22263;52.260;10.548;2023-07-02T13:25:31;0.10;;;0.10;;
7049;SDS011;22263;52.260;10.548;2023-07-02T13:28:00;0.10;;;0.10;;
7049;SDS011;22263;52.260;10.548;2023-07-02T13:30:30;0.10;;;0.10;;
7049;SDS011;22263;52.260;10.548;2023-07-02T13:33:00;0.10;;;0.10;;
7049;SDS011;22263;52.260;10.548;2023-07-02T13:35:30;0.10;;;0.10;;
7049;SDS011;22263;52.260;10.548;2023-07-02T13:38:00;0.00;;;0.00;;
7049;SDS011;22263;52.260;10.548;2023-07-02T13:40:34;0.00;;;0.00;;
7049;SDS011;22263;52.260;10.548;2023-07-02T13:43:04;0.10;;;0.10;;
7049;SDS011;22263;52.260;10.548;2023-07-02T13:45:33;0.10;;;0.10;;
7049;SDS011;22263;52.260;10.548;2023-07-02T13:48:03;0.10;;;0.10;;
7049;SDS011;22263;52.260;10.548;2023-07-02T13:50:33;0.10;;;0.10;;
7049;SDS011;22263;52.260;10.548;2023-07-02T13:53:03;0.00;;;0.00;;
7049;SDS011;22263;52.260;10.548;2023-07-02T13:55:36;0.00;;;0.00;;
7049;SDS011;22263;52.260;10.548;2023-07-02T13:58:05;0.10;;;0.10;;
7049;SDS011;22263;52.260;10.548;2023-07-02T14:00:37;0.00;;;0.00;;
7049;SDS011;22263;52.260;10.548;2023-07-02T14:03:07;0.10;;;0.10;;
7049;SDS011;22263;52.260;10.548;2023-07-02T14:05:37;0.00;;;0.00;;
7049;SDS011;22263;52.260;10.548;2023-07-02T14:08:07;0.10;;;0.10;;
7049;SDS011;22263;52.260;10.548;2023-07-02T14:10:38;0.00;;;0.00;;
7049;SDS011;22263;52.260;10.548;2023-07-02T14:13:08;0.08;;;0.08;;
7049;SDS011;22263;52.260;10.548;2023-07-02T14:15:40;0.00;;;0.00;;
7049;SDS011;22263;52.260;10.548;2023-07-02T14:18:10;0.03;;;0.03;;
7049;SDS011;22263;52.260;10.548;2023-07-02T14:20:40;0.10;;;0.10;;
7049;SDS011;22263;52.260;10.548;2023-07-02T14:23:10;0.00;;;0.00;;
7049;SDS011;22263;52.260;10.548;2023-07-02T14:25:40;0.00;;;0.00;;
7049;SDS011;22263;52.260;10.548;2023-07-02T14:28:09;0.10;;;0.10;;
7049;SDS011;22263;52.260;10.548;2023-07-02T14:30:42;0.10;;;0.10;;
7049;SDS011;22263;52.260;10.548;2023-07-02T14:33:12;0.00;;;0.00;;
7049;SDS011;22263;52.260;10.548;2023-07-02T14:35:46;0.00;;;0.00;;
7049;SDS011;22263;52.260;10.548;2023-07-02T14:38:16;0.10;;;0.10;;
7049;SDS011;22263;52.260;10.548;2023-07-02T14:40:47;0.10;;;0.10;;
7049;SDS011;22263;52.260;10.548;2023-07-02T14:43:17;0.10;;;0.10;;
7049;SDS011;22263;52.260;10.548;2023-07-02T14:45:50;0.10;;;0.10;;
7049;SDS011;22263;52.260;10.548;2023-07-02T14:48:22;0.08;;;0.08;;
7049;SDS011;22263;52.260;10.548;2023-07-02T14:50:52;0.00;;;0.00;;
7049;SDS011;22263;52.260;10.548;2023-07-02T14:53:23;0.10;;;0.10;;
7049;SDS011;22263;52.260;10.548;2023-07-02T14:55:54;0.10;;;0.10;;
7049;SDS011;22263;52.260;10.548;2023-07-02T14:58:26;0.10;;;0.10;;
7049;SDS011;22263;52.260;10.548;2023-07-02T15:00:59;0.10;;;0.10;;
7049;SDS011;22263;52.260;10.548;2023-07-02T15:03:29;0.10;;;0.10;;
7049;SDS011;22263;52.260;10.548;2023-07-02T15:06:06;0.03;;;0.03;;
7049;SDS011;22263;52.260;10.548;2023-07-02T15:08:37;0.10;;;0.10;;
7049;SDS011;22263;52.260;10.548;2023-07-02T15:11:08;0.10;;;0.10;;